Wyatt, West Virginia
Current Conditions -  °F | °C
As of 8:37 PM on Tuesday 21 Oct 2014 (Local Time) from KCKB Reporting Station
Overcast Overcast  
Wind Chill: 43°   Ceiling: 4200
Heat Index: 48°   Visibility: 10mi
Dew Point: 45°   Wind: 10mph
Humidity: 89%   Direction: 320°NW
Pressure: 30.01"   Gusts: NA
Location:  39.43°N, 80.35°W
Report Text: KCKB 220037Z 32009KT 10SM SCT022 OVC042 09/07 A3001 RMK AO2 RAE02 T00890072 $
Loading
Personal Weather Stations






























Interactive Weather Map
Tropical Storm Tracking
New forecast layout! Learn more

10-Day Weather Forecast

Advertisements
Track Severe Weather on mobile